sensor_id;sensor_type;location;lat;lon;timestamp;pressure;altitude;pressure_sealevel;temperature;humidity
67434;BME280;54305;47.950;6.572;2022-12-18T00:00:30;94938.50;;;-5.82;80.07
67434;BME280;54305;47.950;6.572;2022-12-18T00:02:56;94937.19;;;-5.70;80.61
67434;BME280;54305;47.950;6.572;2022-12-18T00:05:21;94934.75;;;-5.72;82.26
67434;BME280;54305;47.950;6.572;2022-12-18T00:07:46;94928.56;;;-5.65;81.08
67434;BME280;54305;47.950;6.572;2022-12-18T00:10:11;94932.28;;;-5.75;82.11
67434;BME280;54305;47.950;6.572;2022-12-18T00:12:37;94941.88;;;-5.83;81.65
67434;BME280;54305;47.950;6.572;2022-12-18T00:15:03;94954.81;;;-5.90;83.68
67434;BME280;54305;47.950;6.572;2022-12-18T00:17:28;94948.44;;;-6.02;84.32
67434;BME280;54305;47.950;6.572;2022-12-18T00:19:53;94947.66;;;-6.04;85.84
67434;BME280;54305;47.950;6.572;2022-12-18T00:22:19;94959.44;;;-6.03;86.55
67434;BME280;54305;47.950;6.572;2022-12-18T00:24:44;94958.53;;;-6.00;85.34
67434;BME280;54305;47.950;6.572;2022-12-18T00:27:09;94950.91;;;-6.00;85.54
67434;BME280;54305;47.950;6.572;2022-12-18T00:29:34;94955.75;;;-5.93;85.00
67434;BME280;54305;47.950;6.572;2022-12-18T00:32:00;94952.53;;;-5.98;85.64
67434;BME280;54305;47.950;6.572;2022-12-18T00:34:25;94956.16;;;-6.05;87.71
67434;BME280;54305;47.950;6.572;2022-12-18T00:36:50;94954.78;;;-6.15;87.93
67434;BME280;54305;47.950;6.572;2022-12-18T00:39:15;94958.50;;;-6.25;88.45
67434;BME280;54305;47.950;6.572;2022-12-18T00:41:41;94956.13;;;-6.31;89.23
67434;BME280;54305;47.950;6.572;2022-12-18T00:44:24;94951.97;;;-6.33;90.10
67434;BME280;54305;47.950;6.572;2022-12-18T00:46:50;94952.06;;;-6.35;90.27
67434;BME280;54305;47.950;6.572;2022-12-18T00:49:16;94953.97;;;-6.43;90.69
67434;BME280;54305;47.950;6.572;2022-12-18T00:51:42;94947.06;;;-6.38;91.75
67434;BME280;54305;47.950;6.572;2022-12-18T00:54:08;94950.22;;;-6.30;91.26
67434;BME280;54305;47.950;6.572;2022-12-18T00:56:35;94944.84;;;-6.21;88.08
67434;BME280;54305;47.950;6.572;2022-12-18T00:59:00;94948.88;;;-6.15;85.21
67434;BME280;54305;47.950;6.572;2022-12-18T01:01:25;94949.72;;;-6.15;84.05
67434;BME280;54305;47.950;6.572;2022-12-18T01:03:50;94951.50;;;-5.92;83.62
67434;BME280;54305;47.950;6.572;2022-12-18T01:06:16;94957.44;;;-5.69;82.87
67434;BME280;54305;47.950;6.572;2022-12-18T01:08:41;94956.97;;;-5.80;83.51
67434;BME280;54305;47.950;6.572;2022-12-18T01:11:07;94955.16;;;-5.76;83.66
67434;BME280;54305;47.950;6.572;2022-12-18T01:13:33;94959.06;;;-5.91;83.71
67434;BME280;54305;47.950;6.572;2022-12-18T01:15:58;94961.44;;;-6.11;83.12
67434;BME280;54305;47.950;6.572;2022-12-18T01:18:23;94971.03;;;-6.22;84.58
67434;BME280;54305;47.950;6.572;2022-12-18T01:20:49;94972.97;;;-6.02;86.08
67434;BME280;54305;47.950;6.572;2022-12-18T01:23:14;94969.00;;;-5.85;84.32
67434;BME280;54305;47.950;6.572;2022-12-18T01:25:39;94969.50;;;-5.75;85.79
67434;BME280;54305;47.950;6.572;2022-12-18T01:28:05;94973.34;;;-5.88;85.48
67434;BME280;54305;47.950;6.572;2022-12-18T01:30:30;94981.50;;;-6.05;85.17
67434;BME280;54305;47.950;6.572;2022-12-18T01:32:55;94975.50;;;-6.02;85.73
67434;BME280;54305;47.950;6.572;2022-12-18T01:35:20;94981.38;;;-6.02;83.73
67434;BME280;54305;47.950;6.572;2022-12-18T01:37:46;94976.94;;;-5.95;84.15
67434;BME280;54305;47.950;6.572;2022-12-18T01:40:11;94982.78;;;-5.92;86.08
67434;BME280;54305;47.950;6.572;2022-12-18T01:42:37;94991.53;;;-6.02;86.33
67434;BME280;54305;47.950;6.572;2022-12-18T01:49:56;95010.03;;;-6.53;86.11
67434;BME280;54305;47.950;6.572;2022-12-18T01:52:22;95010.28;;;-6.62;87.60
67434;BME280;54305;47.950;6.572;2022-12-18T01:54:50;95009.13;;;-6.23;89.07
67434;BME280;54305;47.950;6.572;2022-12-18T01:57:16;95009.63;;;-6.12;87.74
67434;BME280;54305;47.950;6.572;2022-12-18T01:59:41;95010.75;;;-5.95;87.65
67434;BME280;54305;47.950;6.572;2022-12-18T02:02:07;94994.44;;;-5.88;87.72
67434;BME280;54305;47.950;6.572;2022-12-18T02:04:33;94991.63;;;-6.05;87.49
67434;BME280;54305;47.950;6.572;2022-12-18T02:07:10;94988.13;;;-6.28;87.36
67434;BME280;54305;47.950;6.572;2022-12-18T02:12:24;94988.03;;;-6.51;88.76
67434;BME280;54305;47.950;6.572;2022-12-18T02:15:00;94991.56;;;-6.57;88.64
67434;BME280;54305;47.950;6.572;2022-12-18T02:20:02;95000.03;;;-6.58;86.79
67434;BME280;54305;47.950;6.572;2022-12-18T02:27:44;95004.53;;;-6.67;88.54
67434;BME280;54305;47.950;6.572;2022-12-18T02:30:10;95006.44;;;-6.74;87.21
67434;BME280;54305;47.950;6.572;2022-12-18T02:32:39;95012.34;;;-6.75;85.06
67434;BME280;54305;47.950;6.572;2022-12-18T02:35:06;95015.22;;;-6.58;84.95
67434;BME280;54305;47.950;6.572;2022-12-18T02:37:32;95009.97;;;-6.52;85.89
67434;BME280;54305;47.950;6.572;2022-12-18T02:39:58;95018.91;;;-6.68;85.50
67434;BME280;54305;47.950;6.572;2022-12-18T02:42:24;95018.91;;;-6.68;88.25
67434;BME280;54305;47.950;6.572;2022-12-18T02:44:50;95028.34;;;-6.73;89.87
67434;BME280;54305;47.950;6.572;2022-12-18T02:47:20;95022.72;;;-6.84;88.96
67434;BME280;54305;47.950;6.572;2022-12-18T03:00:29;95031.72;;;-7.03;90.02
67434;BME280;54305;47.950;6.572;2022-12-18T03:05:22;95028.38;;;-6.74;91.55
67434;BME280;54305;47.950;6.572;2022-12-18T03:07:52;95022.66;;;-6.52;90.99
67434;BME280;54305;47.950;6.572;2022-12-18T03:10:19;95018.09;;;-6.41;91.09
67434;BME280;54305;47.950;6.572;2022-12-18T03:12:47;95013.31;;;-6.50;92.39
67434;BME280;54305;47.950;6.572;2022-12-18T03:17:48;95010.78;;;-6.79;94.84
67434;BME280;54305;47.950;6.572;2022-12-18T03:20:17;95013.22;;;-7.05;92.90
67434;BME280;54305;47.950;6.572;2022-12-18T03:22:44;95007.78;;;-7.22;91.39
67434;BME280;54305;47.950;6.572;2022-12-18T03:25:13;95014.81;;;-7.33;92.12
67434;BME280;54305;47.950;6.572;2022-12-18T03:27:39;95015.78;;;-7.37;92.05
67434;BME280;54305;47.950;6.572;2022-12-18T03:30:10;95018.56;;;-7.46;91.19
67434;BME280;54305;47.950;6.572;2022-12-18T03:35:39;95014.78;;;-7.01;92.25
67434;BME280;54305;47.950;6.572;2022-12-18T03:38:05;95009.72;;;-7.01;92.27
67434;BME280;54305;47.950;6.572;2022-12-18T03:40:41;95012.78;;;-6.90;91.96
67434;BME280;54305;47.950;6.572;2022-12-18T03:43:16;95006.75;;;-6.86;89.77
67434;BME280;54305;47.950;6.572;2022-12-18T03:45:47;95009.78;;;-7.04;89.83
67434;BME280;54305;47.950;6.572;2022-12-18T03:48:16;95013.88;;;-7.29;88.79
67434;BME280;54305;47.950;6.572;2022-12-18T03:55:40;95013.78;;;-7.26;90.57
67434;BME280;54305;47.950;6.572;2022-12-18T03:58:06;95008.63;;;-7.23;90.23
67434;BME280;54305;47.950;6.572;2022-12-18T04:00:32;95010.69;;;-7.05;91.57
67434;BME280;54305;47.950;6.572;2022-12-18T04:02:59;95007.66;;;-7.17;90.98
67434;BME280;54305;47.950;6.572;2022-12-18T04:05:27;95009.66;;;-7.28;91.16
67434;BME280;54305;47.950;6.572;2022-12-18T04:07:53;95003.22;;;-7.40;91.44
67434;BME280;54305;47.950;6.572;2022-12-18T04:10:19;95008.38;;;-7.14;92.92
67434;BME280;54305;47.950;6.572;2022-12-18T04:12:45;95003.53;;;-6.91;91.86
67434;BME280;54305;47.950;6.572;2022-12-18T04:15:10;95002.84;;;-6.96;92.10
67434;BME280;54305;47.950;6.572;2022-12-18T04:17:36;95006.78;;;-7.16;88.56
67434;BME280;54305;47.950;6.572;2022-12-18T04:20:02;95007.09;;;-7.27;90.15
67434;BME280;54305;47.950;6.572;2022-12-18T04:22:27;95006.97;;;-7.24;89.83
67434;BME280;54305;47.950;6.572;2022-12-18T04:24:53;95001.59;;;-7.12;88.99
67434;BME280;54305;47.950;6.572;2022-12-18T04:27:18;94990.72;;;-7.15;90.07
67434;BME280;54305;47.950;6.572;2022-12-18T04:29:43;94999.06;;;-7.12;89.39
67434;BME280;54305;47.950;6.572;2022-12-18T04:32:09;94998.28;;;-7.14;88.64
67434;BME280;54305;47.950;6.572;2022-12-18T04:34:34;95000.09;;;-7.19;89.33
67434;BME280;54305;47.950;6.572;2022-12-18T04:36:59;95003.84;;;-7.32;88.02
67434;BME280;54305;47.950;6.572;2022-12-18T04:39:25;95000.84;;;-7.46;88.57
67434;BME280;54305;47.950;6.572;2022-12-18T04:41:50;95002.66;;;-7.51;89.67
67434;BME280;54305;47.950;6.572;2022-12-18T04:44:15;94998.34;;;-7.47;87.63
67434;BME280;54305;47.950;6.572;2022-12-18T04:46:41;94995.38;;;-7.31;86.86
67434;BME280;54305;47.950;6.572;2022-12-18T04:49:06;94994.97;;;-7.16;86.38
67434;BME280;54305;47.950;6.572;2022-12-18T04:51:31;94994.28;;;-7.22;86.95
67434;BME280;54305;47.950;6.572;2022-12-18T04:53:57;94999.41;;;-7.24;88.43
67434;BME280;54305;47.950;6.572;2022-12-18T04:56:22;94995.22;;;-7.25;88.27
67434;BME280;54305;47.950;6.572;2022-12-18T04:58:48;95000.03;;;-7.16;89.28
67434;BME280;54305;47.950;6.572;2022-12-18T05:01:14;95002.63;;;-7.19;88.60
67434;BME280;54305;47.950;6.572;2022-12-18T05:03:40;95005.09;;;-7.16;88.34
67434;BME280;54305;47.950;6.572;2022-12-18T05:06:05;95014.47;;;-7.19;86.12
67434;BME280;54305;47.950;6.572;2022-12-18T05:08:31;95018.19;;;-7.32;85.38
67434;BME280;54305;47.950;6.572;2022-12-18T05:11:00;95022.72;;;-7.45;82.97
67434;BME280;54305;47.950;6.572;2022-12-18T05:13:25;95035.63;;;-7.55;84.76
67434;BME280;54305;47.950;6.572;2022-12-18T05:15:51;95043.78;;;-7.78;86.15
67434;BME280;54305;47.950;6.572;2022-12-18T05:18:18;95044.00;;;-7.87;86.57
67434;BME280;54305;47.950;6.572;2022-12-18T05:20:44;95050.97;;;-7.95;86.49
67434;BME280;54305;47.950;6.572;2022-12-18T05:23:09;95055.41;;;-8.06;86.81
67434;BME280;54305;47.950;6.572;2022-12-18T05:25:34;95053.19;;;-8.18;87.20
67434;BME280;54305;47.950;6.572;2022-12-18T05:28:00;95058.41;;;-8.24;88.04
67434;BME280;54305;47.950;6.572;2022-12-18T05:30:25;95055.13;;;-8.29;88.78
67434;BME280;54305;47.950;6.572;2022-12-18T05:32:50;95056.91;;;-8.34;88.79
67434;BME280;54305;47.950;6.572;2022-12-18T05:35:15;95073.88;;;-8.39;89.25
67434;BME280;54305;47.950;6.572;2022-12-18T05:37:41;95073.13;;;-8.44;89.35
67434;BME280;54305;47.950;6.572;2022-12-18T05:40:06;95077.44;;;-8.49;90.62
67434;BME280;54305;47.950;6.572;2022-12-18T05:42:32;95080.16;;;-8.58;90.97
67434;BME280;54305;47.950;6.572;2022-12-18T05:44:57;95079.44;;;-8.63;90.92
67434;BME280;54305;47.950;6.572;2022-12-18T05:47:22;95086.63;;;-8.45;92.45
67434;BME280;54305;47.950;6.572;2022-12-18T05:49:47;95094.31;;;-8.13;94.63
67434;BME280;54305;47.950;6.572;2022-12-18T05:52:13;95096.75;;;-8.10;93.39
67434;BME280;54305;47.950;6.572;2022-12-18T05:54:38;95098.81;;;-7.89;93.97
67434;BME280;54305;47.950;6.572;2022-12-18T05:57:04;95099.41;;;-7.78;93.89
67434;BME280;54305;47.950;6.572;2022-12-18T05:59:29;95100.44;;;-7.86;93.82
67434;BME280;54305;47.950;6.572;2022-12-18T06:01:55;95103.50;;;-8.09;94.34
67434;BME280;54305;47.950;6.572;2022-12-18T06:04:20;95108.91;;;-8.24;94.18
67434;BME280;54305;47.950;6.572;2022-12-18T06:06:45;95116.00;;;-8.41;93.93
67434;BME280;54305;47.950;6.572;2022-12-18T06:09:10;95119.22;;;-8.33;93.87
67434;BME280;54305;47.950;6.572;2022-12-18T06:11:36;95119.31;;;-8.39;93.77
67434;BME280;54305;47.950;6.572;2022-12-18T06:14:03;95126.41;;;-8.56;93.48
67434;BME280;54305;47.950;6.572;2022-12-18T06:16:28;95131.69;;;-8.68;93.07
67434;BME280;54305;47.950;6.572;2022-12-18T06:18:57;95128.50;;;-8.74;93.50
67434;BME280;54305;47.950;6.572;2022-12-18T06:21:22;95140.25;;;-8.75;95.52
67434;BME280;54305;47.950;6.572;2022-12-18T06:23:48;95138.31;;;-8.61;97.47
67434;BME280;54305;47.950;6.572;2022-12-18T06:26:13;95134.91;;;-8.60;98.13
67434;BME280;54305;47.950;6.572;2022-12-18T06:28:39;95151.41;;;-8.44;100.00
67434;BME280;54305;47.950;6.572;2022-12-18T06:31:05;95161.59;;;-8.47;100.00
67434;BME280;54305;47.950;6.572;2022-12-18T06:33:30;95165.16;;;-8.57;100.00
67434;BME280;54305;47.950;6.572;2022-12-18T06:35:59;95166.97;;;-8.65;100.00
67434;BME280;54305;47.950;6.572;2022-12-18T06:38:25;95150.94;;;-8.62;100.00
67434;BME280;54305;47.950;6.572;2022-12-18T06:40:51;95150.84;;;-8.58;99.76
67434;BME280;54305;47.950;6.572;2022-12-18T06:43:16;95153.00;;;-8.40;100.00
67434;BME280;54305;47.950;6.572;2022-12-18T06:45:41;95150.16;;;-7.87;100.00
67434;BME280;54305;47.950;6.572;2022-12-18T06:48:07;95142.00;;;-7.28;99.13
67434;BME280;54305;47.950;6.572;2022-12-18T06:50:32;95139.97;;;-6.50;94.15
67434;BME280;54305;47.950;6.572;2022-12-18T06:52:57;95140.13;;;-5.98;89.46
67434;BME280;54305;47.950;6.572;2022-12-18T06:55:23;95144.28;;;-5.68;85.65
67434;BME280;54305;47.950;6.572;2022-12-18T06:57:48;95147.50;;;-5.90;86.11
67434;BME280;54305;47.950;6.572;2022-12-18T07:00:13;95153.41;;;-5.90;87.04
67434;BME280;54305;47.950;6.572;2022-12-18T07:02:39;95158.66;;;-5.96;88.38
67434;BME280;54305;47.950;6.572;2022-12-18T07:05:05;95152.84;;;-5.72;88.41
67434;BME280;54305;47.950;6.572;2022-12-18T07:07:30;95135.94;;;-5.73;87.62
67434;BME280;54305;47.950;6.572;2022-12-18T07:09:56;95160.91;;;-5.33;82.82
67434;BME280;54305;47.950;6.572;2022-12-18T07:12:21;95158.06;;;-5.23;84.54
67434;BME280;54305;47.950;6.572;2022-12-18T07:14:46;95151.41;;;-5.27;85.46
67434;BME280;54305;47.950;6.572;2022-12-18T07:17:11;95154.72;;;-5.25;85.35
67434;BME280;54305;47.950;6.572;2022-12-18T07:19:37;95159.13;;;-5.04;84.28
67434;BME280;54305;47.950;6.572;2022-12-18T07:22:02;95153.38;;;-5.09;84.67
67434;BME280;54305;47.950;6.572;2022-12-18T07:24:27;95162.03;;;-4.90;83.88
67434;BME280;54305;47.950;6.572;2022-12-18T07:26:53;95165.56;;;-4.94;86.05
67434;BME280;54305;47.950;6.572;2022-12-18T07:29:18;95163.03;;;-4.94;87.71
67434;BME280;54305;47.950;6.572;2022-12-18T07:31:44;95159.63;;;-4.94;87.82
67434;BME280;54305;47.950;6.572;2022-12-18T07:34:10;95164.47;;;-4.87;88.40
67434;BME280;54305;47.950;6.572;2022-12-18T07:36:35;95161.75;;;-4.81;90.80
67434;BME280;54305;47.950;6.572;2022-12-18T07:39:00;95169.38;;;-4.81;91.29
67434;BME280;54305;47.950;6.572;2022-12-18T07:41:26;95161.63;;;-4.78;90.69
67434;BME280;54305;47.950;6.572;2022-12-18T07:43:51;95174.47;;;-4.58;91.93
67434;BME280;54305;47.950;6.572;2022-12-18T07:46:16;95161.81;;;-4.59;92.26
67434;BME280;54305;47.950;6.572;2022-12-18T07:48:42;95152.44;;;-4.57;94.23
67434;BME280;54305;47.950;6.572;2022-12-18T07:51:08;95158.34;;;-4.32;94.37
67434;BME280;54305;47.950;6.572;2022-12-18T07:53:34;95158.06;;;-4.25;97.09
67434;BME280;54305;47.950;6.572;2022-12-18T07:56:00;95162.97;;;-3.97;96.89
67434;BME280;54305;47.950;6.572;2022-12-18T07:58:27;95164.91;;;-3.81;98.38
67434;BME280;54305;47.950;6.572;2022-12-18T08:00:52;95160.94;;;-3.65;99.56
67434;BME280;54305;47.950;6.572;2022-12-18T08:03:17;95150.16;;;-3.50;99.61
67434;BME280;54305;47.950;6.572;2022-12-18T08:05:43;95149.88;;;-3.21;100.00
67434;BME280;54305;47.950;6.572;2022-12-18T08:08:08;95147.72;;;-3.10;100.00
67434;BME280;54305;47.950;6.572;2022-12-18T08:10:33;95144.53;;;-2.95;100.00
67434;BME280;54305;47.950;6.572;2022-12-18T08:12:58;95149.75;;;-2.98;100.00
67434;BME280;54305;47.950;6.572;2022-12-18T08:15:23;95149.66;;;-2.75;100.00
67434;BME280;54305;47.950;6.572;2022-12-18T08:17:49;95150.03;;;-2.64;100.00
67434;BME280;54305;47.950;6.572;2022-12-18T08:20:14;95147.41;;;-2.42;100.00
67434;BME280;54305;47.950;6.572;2022-12-18T08:22:40;95149.19;;;-2.06;100.00
67434;BME280;54305;47.950;6.572;2022-12-18T08:25:06;95140.13;;;-1.93;100.00
67434;BME280;54305;47.950;6.572;2022-12-18T08:27:31;95142.47;;;-1.70;100.00
67434;BME280;54305;47.950;6.572;2022-12-18T08:29:57;95141.06;;;-1.40;100.00
67434;BME280;54305;47.950;6.572;2022-12-18T08:32:23;95148.56;;;-1.18;100.00
67434;BME280;54305;47.950;6.572;2022-12-18T08:34:48;95141.44;;;-0.95;100.00
67434;BME280;54305;47.950;6.572;2022-12-18T08:37:13;95147.31;;;-0.93;100.00
67434;BME280;54305;47.950;6.572;2022-12-18T08:39:39;95137.53;;;-1.02;100.00
67434;BME280;54305;47.950;6.572;2022-12-18T08:42:04;95148.31;;;-0.61;100.00
67434;BME280;54305;47.950;6.572;2022-12-18T08:44:48;95139.28;;;-0.51;100.00
67434;BME280;54305;47.950;6.572;2022-12-18T08:47:13;95134.69;;;-0.45;100.00
67434;BME280;54305;47.950;6.572;2022-12-18T08:49:38;95131.38;;;-0.47;100.00
67434;BME280;54305;47.950;6.572;2022-12-18T08:52:03;95132.09;;;-0.28;100.00
67434;BME280;54305;47.950;6.572;2022-12-18T08:54:29;95136.72;;;-0.02;100.00
67434;BME280;54305;47.950;6.572;2022-12-18T08:56:54;95150.38;;;0.14;100.00
67434;BME280;54305;47.950;6.572;2022-12-18T08:59:19;95129.06;;;0.92;100.00
67434;BME280;54305;47.950;6.572;2022-12-18T09:01:45;95140.50;;;1.31;100.00
67434;BME280;54305;47.950;6.572;2022-12-18T09:04:11;95143.44;;;1.69;100.00
67434;BME280;54305;47.950;6.572;2022-12-18T09:06:36;95138.53;;;2.08;99.73
67434;BME280;54305;47.950;6.572;2022-12-18T09:09:02;95146.41;;;2.33;97.35
67434;BME280;54305;47.950;6.572;2022-12-18T09:11:28;95147.34;;;2.46;96.74
67434;BME280;54305;47.950;6.572;2022-12-18T09:13:53;95150.28;;;2.26;96.71
67434;BME280;54305;47.950;6.572;2022-12-18T09:16:19;95150.09;;;2.01;97.70
67434;BME280;54305;47.950;6.572;2022-12-18T09:18:45;95143.13;;;2.03;98.39
67434;BME280;54305;47.950;6.572;2022-12-18T09:21:11;95143.28;;;2.28;98.12
67434;BME280;54305;47.950;6.572;2022-12-18T09:23:37;95141.63;;;2.55;97.04
67434;BME280;54305;47.950;6.572;2022-12-18T09:26:03;95144.00;;;2.58;94.76
67434;BME280;54305;47.950;6.572;2022-12-18T09:28:29;95154.41;;;2.83;96.21
67434;BME280;54305;47.950;6.572;2022-12-18T09:30:54;95160.16;;;3.53;93.67
67434;BME280;54305;47.950;6.572;2022-12-18T09:33:20;95163.22;;;4.10;89.04
67434;BME280;54305;47.950;6.572;2022-12-18T09:35:45;95166.41;;;4.51;88.79
67434;BME280;54305;47.950;6.572;2022-12-18T09:38:11;95155.25;;;4.99;85.91
67434;BME280;54305;47.950;6.572;2022-12-18T09:40:45;95157.09;;;5.33;82.48
67434;BME280;54305;47.950;6.572;2022-12-18T09:43:34;95141.06;;;5.64;81.35
67434;BME280;54305;47.950;6.572;2022-12-18T09:46:05;95153.59;;;5.92;81.19
67434;BME280;54305;47.950;6.572;2022-12-18T09:48:32;95148.53;;;5.56;81.99
67434;BME280;54305;47.950;6.572;2022-12-18T09:51:03;95150.13;;;6.04;80.66
67434;BME280;54305;47.950;6.572;2022-12-18T09:53:31;95134.03;;;6.22;78.39
67434;BME280;54305;47.950;6.572;2022-12-18T09:56:00;95135.56;;;5.79;80.26
67434;BME280;54305;47.950;6.572;2022-12-18T09:58:36;95144.03;;;5.47;82.03
67434;BME280;54305;47.950;6.572;2022-12-18T10:01:38;95147.41;;;5.71;81.14
67434;BME280;54305;47.950;6.572;2022-12-18T10:03:56;95148.41;;;5.57;81.26
67434;BME280;54305;47.950;6.572;2022-12-18T10:08:54;95137.31;;;5.44;81.63
67434;BME280;54305;47.950;6.572;2022-12-18T10:16:55;95128.09;;;5.87;78.68
67434;BME280;54305;47.950;6.572;2022-12-18T10:26:43;95125.81;;;6.17;77.49
67434;BME280;54305;47.950;6.572;2022-12-18T10:29:12;95140.00;;;6.01;77.28
67434;BME280;54305;47.950;6.572;2022-12-18T10:31:37;95126.16;;;6.02;79.17
67434;BME280;54305;47.950;6.572;2022-12-18T10:34:03;95117.44;;;6.03;81.29
67434;BME280;54305;47.950;6.572;2022-12-18T10:36:28;95134.88;;;6.12;78.52
67434;BME280;54305;47.950;6.572;2022-12-18T10:38:54;95131.38;;;6.46;79.08
67434;BME280;54305;47.950;6.572;2022-12-18T10:41:38;95121.19;;;7.09;75.15
67434;BME280;54305;47.950;6.572;2022-12-18T10:44:17;95126.94;;;7.12;75.82
67434;BME280;54305;47.950;6.572;2022-12-18T10:46:43;95123.50;;;7.23;75.16
67434;BME280;54305;47.950;6.572;2022-12-18T10:49:31;95127.69;;;7.66;73.46
67434;BME280;54305;47.950;6.572;2022-12-18T10:52:14;95114.00;;;7.96;70.88
67434;BME280;54305;47.950;6.572;2022-12-18T10:54:45;95115.47;;;8.30;68.93
67434;BME280;54305;47.950;6.572;2022-12-18T10:57:31;95114.13;;;8.15;68.86
67434;BME280;54305;47.950;6.572;2022-12-18T10:59:57;95114.50;;;7.90;70.49
67434;BME280;54305;47.950;6.572;2022-12-18T11:02:36;95125.78;;;8.00;69.13
67434;BME280;54305;47.950;6.572;2022-12-18T11:05:03;95120.03;;;7.44;71.52
67434;BME280;54305;47.950;6.572;2022-12-18T11:07:49;95125.81;;;7.37;72.03
67434;BME280;54305;47.950;6.572;2022-12-18T11:10:19;95136.44;;;7.34;71.83
67434;BME280;54305;47.950;6.572;2022-12-18T11:12:46;95130.84;;;7.07;73.15
67434;BME280;54305;47.950;6.572;2022-12-18T11:15:15;95123.25;;;7.26;72.34
67434;BME280;54305;47.950;6.572;2022-12-18T11:17:42;95130.84;;;7.81;71.17
67434;BME280;54305;47.950;6.572;2022-12-18T11:20:19;95124.38;;;7.44;73.40
67434;BME280;54305;47.950;6.572;2022-12-18T11:22:53;95125.88;;;7.15;71.71
67434;BME280;54305;47.950;6.572;2022-12-18T11:25:20;95118.25;;;7.45;71.15
67434;BME280;54305;47.950;6.572;2022-12-18T11:28:04;95113.19;;;7.95;69.80
67434;BME280;54305;47.950;6.572;2022-12-18T11:30:31;95103.19;;;7.91;69.07
67434;BME280;54305;47.950;6.572;2022-12-18T11:37:53;95107.22;;;7.32;69.05
67434;BME280;54305;47.950;6.572;2022-12-18T11:40:25;95093.44;;;7.63;69.30
67434;BME280;54305;47.950;6.572;2022-12-18T11:45:48;95098.84;;;7.71;69.20
67434;BME280;54305;47.950;6.572;2022-12-18T11:48:21;95085.13;;;7.28;69.82
67434;BME280;54305;47.950;6.572;2022-12-18T11:53:16;95090.41;;;6.84;73.37
67434;BME280;54305;47.950;6.572;2022-12-18T11:58:40;95083.53;;;7.05;74.39
67434;BME280;54305;47.950;6.572;2022-12-18T12:06:25;95074.91;;;7.47;73.23
67434;BME280;54305;47.950;6.572;2022-12-18T12:20:00;95094.56;;;7.18;73.20
67434;BME280;54305;47.950;6.572;2022-12-18T12:40:01;95086.41;;;7.95;70.05
67434;BME280;54305;47.950;6.572;2022-12-18T12:42:49;95100.72;;;7.69;71.10
67434;BME280;54305;47.950;6.572;2022-12-18T12:45:38;95086.75;;;7.29;73.60
67434;BME280;54305;47.950;6.572;2022-12-18T12:48:07;95086.00;;;6.95;73.93
67434;BME280;54305;47.950;6.572;2022-12-18T12:50:38;95088.00;;;7.03;74.87
67434;BME280;54305;47.950;6.572;2022-12-18T12:53:09;95086.81;;;7.07;75.83
67434;BME280;54305;47.950;6.572;2022-12-18T12:55:39;95075.31;;;7.31;72.73
67434;BME280;54305;47.950;6.572;2022-12-18T13:00:31;95079.56;;;6.90;76.16
67434;BME280;54305;47.950;6.572;2022-12-18T13:06:36;95078.66;;;6.80;75.48
67434;BME280;54305;47.950;6.572;2022-12-18T13:08:28;95081.03;;;6.61;76.53
67434;BME280;54305;47.950;6.572;2022-12-18T13:10:55;95078.66;;;6.58;77.27
67434;BME280;54305;47.950;6.572;2022-12-18T13:13:51;95081.97;;;6.60;77.00
67434;BME280;54305;47.950;6.572;2022-12-18T13:16:20;95085.22;;;6.84;77.73
67434;BME280;54305;47.950;6.572;2022-12-18T13:18:52;95102.91;;;6.57;77.30
67434;BME280;54305;47.950;6.572;2022-12-18T13:21:27;95071.28;;;6.53;78.21
67434;BME280;54305;47.950;6.572;2022-12-18T13:23:53;95071.13;;;6.66;78.41
67434;BME280;54305;47.950;6.572;2022-12-18T13:31:13;95080.78;;;6.53;79.40
67434;BME280;54305;47.950;6.572;2022-12-18T13:38:41;95060.31;;;6.61;79.37
67434;BME280;54305;47.950;6.572;2022-12-18T13:43:41;95072.31;;;6.40;79.75
67434;BME280;54305;47.950;6.572;2022-12-18T13:48:47;95064.56;;;6.40;79.51
67434;BME280;54305;47.950;6.572;2022-12-18T13:51:13;95058.94;;;6.46;79.04
67434;BME280;54305;47.950;6.572;2022-12-18T13:53:47;95053.41;;;6.39;80.15
67434;BME280;54305;47.950;6.572;2022-12-18T13:56:16;95063.63;;;6.30;79.20
67434;BME280;54305;47.950;6.572;2022-12-18T13:58:42;95047.97;;;6.42;79.21
67434;BME280;54305;47.950;6.572;2022-12-18T14:01:23;95056.81;;;6.51;78.79
67434;BME280;54305;47.950;6.572;2022-12-18T14:03:48;95056.31;;;6.57;78.97
67434;BME280;54305;47.950;6.572;2022-12-18T14:06:13;95047.88;;;6.55;77.67
67434;BME280;54305;47.950;6.572;2022-12-18T14:08:40;95057.25;;;6.45;78.94
67434;BME280;54305;47.950;6.572;2022-12-18T14:11:06;95036.81;;;6.42;77.82
67434;BME280;54305;47.950;6.572;2022-12-18T14:13:33;95052.13;;;6.23;79.63
67434;BME280;54305;47.950;6.572;2022-12-18T14:16:01;95051.63;;;6.29;77.88
67434;BME280;54305;47.950;6.572;2022-12-18T14:21:00;95058.22;;;6.11;78.58
67434;BME280;54305;47.950;6.572;2022-12-18T14:23:27;95065.28;;;6.09;78.22
67434;BME280;54305;47.950;6.572;2022-12-18T14:25:53;95054.47;;;6.04;79.01
67434;BME280;54305;47.950;6.572;2022-12-18T14:28:18;95059.03;;;6.00;78.33
67434;BME280;54305;47.950;6.572;2022-12-18T14:30:44;95061.84;;;5.97;77.94
67434;BME280;54305;47.950;6.572;2022-12-18T14:33:17;95060.31;;;5.95;79.15
67434;BME280;54305;47.950;6.572;2022-12-18T14:36:26;95069.34;;;5.89;79.39
67434;BME280;54305;47.950;6.572;2022-12-18T14:38:35;95062.38;;;5.79;80.25
67434;BME280;54305;47.950;6.572;2022-12-18T14:43:31;95069.56;;;5.75;80.35
67434;BME280;54305;47.950;6.572;2022-12-18T14:45:57;95070.34;;;5.65;80.71
67434;BME280;54305;47.950;6.572;2022-12-18T14:48:41;95076.31;;;5.65;81.93
67434;BME280;54305;47.950;6.572;2022-12-18T14:53:45;95078.19;;;5.63;81.50
67434;BME280;54305;47.950;6.572;2022-12-18T14:56:15;95079.84;;;5.64;81.78
67434;BME280;54305;47.950;6.572;2022-12-18T14:58:48;95088.41;;;5.54;82.52
67434;BME280;54305;47.950;6.572;2022-12-18T15:01:47;95081.16;;;5.59;82.07
67434;BME280;54305;47.950;6.572;2022-12-18T15:04:05;95083.00;;;5.57;82.91
67434;BME280;54305;47.950;6.572;2022-12-18T15:06:48;95078.50;;;5.48;83.52
67434;BME280;54305;47.950;6.572;2022-12-18T15:09:23;95079.72;;;5.31;84.93
67434;BME280;54305;47.950;6.572;2022-12-18T15:11:49;95075.97;;;5.24;84.26
67434;BME280;54305;47.950;6.572;2022-12-18T15:14:38;95095.38;;;5.30;83.67